Time;durP1;ratioP1;P1;durP2;ratioP2;P2;SDS_P1;SDS_P2;PMS_P1;PMS_P2;Temp;Humidity;BMP_temperature;BMP_pressure;BME280_temperature;BME280_humidity;BME280_pressure;Samples;Min_cycle;Max_cycle;Signal;HPM_P1;HPM_P2
2021/06/08 00:01:29;;;;;;;2.28;2.00;;;16.30;99.90;;;;;;5056687;28;20060;-75
2021/06/08 00:03:55;;;;;;;4.43;1.88;;;16.30;99.90;;;;;;5056258;28;20045;-75
2021/06/08 00:06:21;;;;;;;3.95;2.33;;;16.40;99.90;;;;;;5056189;28;20053;-75
2021/06/08 00:08:47;;;;;;;2.22;2.03;;;16.40;99.90;;;;;;5056444;28;20037;-76
2021/06/08 00:11:15;;;;;;;1.98;1.83;;;16.40;99.90;;;;;;5055772;28;20134;-76
2021/06/08 00:13:41;;;;;;;2.20;1.98;;;16.30;99.90;;;;;;5056124;28;20064;-76
2021/06/08 00:16:07;;;;;;;4.45;1.90;;;16.30;99.90;;;;;;5056032;28;20045;-75
2021/06/08 00:18:33;;;;;;;2.72;2.10;;;16.30;99.90;;;;;;5055790;28;20044;-75
2021/06/08 00:20:58;;;;;;;4.35;2.25;;;16.30;99.90;;;;;;5055736;28;20400;-76
2021/06/08 00:23:24;;;;;;;2.97;2.20;;;16.20;99.90;;;;;;5055612;28;20060;-75
2021/06/08 00:25:50;;;;;;;2.50;2.30;;;16.10;99.90;;;;;;5055868;28;20127;-75
2021/06/08 00:28:16;;;;;;;2.72;2.17;;;16.10;99.90;;;;;;5055593;28;20076;-76
2021/06/08 00:30:42;;;;;;;2.45;2.25;;;15.90;99.90;;;;;;5055522;28;20041;-76
2021/06/08 00:33:08;;;;;;;2.70;2.47;;;15.80;99.90;;;;;;5055796;28;20044;-75
2021/06/08 00:35:34;;;;;;;2.50;2.20;;;15.60;99.90;;;;;;5055951;28;20059;-75
2021/06/08 00:38:00;;;;;;;3.28;2.28;;;15.60;99.90;;;;;;5055594;28;20035;-75
2021/06/08 00:40:26;;;;;;;2.30;2.10;;;15.50;99.90;;;;;;5055867;28;20041;-75
2021/06/08 00:42:53;;;;;;;2.53;2.33;;;15.50;99.90;;;;;;5055503;28;20040;-75
2021/06/08 00:45:19;;;;;;;2.72;2.20;;;15.40;99.90;;;;;;5056101;28;20179;-75
2021/06/08 00:47:45;;;;;;;2.50;2.30;;;15.30;99.90;;;;;;5055292;28;20503;-75
2021/06/08 00:50:12;;;;;;;2.50;2.30;;;15.30;99.90;;;;;;5054511;28;20041;-75
2021/06/08 00:52:38;;;;;;;2.55;2.35;;;15.40;99.90;;;;;;5037526;28;20423;-75
2021/06/08 00:55:04;;;;;;;3.15;2.20;;;15.40;99.90;;;;;;5054956;28;20071;-76
2021/06/08 00:57:30;;;;;;;2.20;2.00;;;15.40;99.90;;;;;;5055300;28;20097;-75
2021/06/08 00:59:56;;;;;;;2.40;2.20;;;15.30;99.90;;;;;;5055028;28;20488;-75
2021/06/08 01:02:22;;;;;;;1.88;1.77;;;15.30;99.90;;;;;;5055217;28;20488;-76
2021/06/08 01:04:48;;;;;;;3.30;2.20;;;15.20;99.90;;;;;;5055505;28;20084;-75
2021/06/08 01:07:13;;;;;;;2.75;2.50;;;15.30;99.90;;;;;;5054914;28;20061;-75
2021/06/08 01:09:39;;;;;;;2.58;2.38;;;15.10;99.90;;;;;;5055023;28;20490;-75
2021/06/08 01:12:05;;;;;;;2.53;2.33;;;15.10;99.90;;;;;;5054534;28;20132;-75
2021/06/08 01:14:31;;;;;;;2.55;2.15;;;15.10;99.90;;;;;;5055065;28;20051;-75
2021/06/08 01:16:57;;;;;;;2.70;2.35;;;15.00;99.90;;;;;;5054836;28;20037;-75
2021/06/08 01:19:23;;;;;;;2.40;2.20;;;15.00;99.90;;;;;;5054646;28;20033;-75
2021/06/08 01:21:49;;;;;;;2.75;2.30;;;15.00;99.90;;;;;;5054331;28;20037;-75
2021/06/08 01:24:15;;;;;;;3.42;2.60;;;14.90;99.90;;;;;;5054513;28;20041;-75
2021/06/08 01:26:40;;;;;;;2.33;2.10;;;14.90;99.90;;;;;;5054267;28;20047;-76
2021/06/08 01:29:07;;;;;;;3.65;2.60;;;14.90;99.90;;;;;;5054851;28;20041;-75
2021/06/08 01:31:35;;;;;;;3.20;2.50;;;14.90;99.90;;;;;;5054536;28;20102;-76
2021/06/08 01:34:02;;;;;;;2.60;2.40;;;14.90;99.90;;;;;;5054510;28;20098;-75
2021/06/08 01:36:32;;;;;;;2.28;2.08;;;15.00;99.90;;;;;;5054498;28;20037;-75
2021/06/08 01:38:59;;;;;;;2.90;2.55;;;15.00;99.90;;;;;;5054552;28;20043;-75
2021/06/08 01:41:26;;;;;;;3.35;2.40;;;15.00;99.90;;;;;;5054269;28;20065;-76
2021/06/08 01:43:53;;;;;;;2.90;2.38;;;15.10;99.90;;;;;;5054060;28;20052;-75
2021/06/08 01:46:20;;;;;;;2.60;2.40;;;15.10;99.90;;;;;;5054762;28;20049;-75
2021/06/08 01:48:47;;;;;;;2.40;2.20;;;15.10;99.90;;;;;;5054645;28;20040;-75
2021/06/08 01:51:50;;;;;;;2.28;2.13;;;15.10;99.90;;;;;;5054061;28;20037;-75
2021/06/08 01:54:43;;;;;;;2.50;2.30;;;15.00;99.90;;;;;;5054733;28;20037;-75
2021/06/08 01:57:33;;;;;;;2.72;2.20;;;14.80;99.90;;;;;;5053902;28;20047;-75
2021/06/08 02:00:20;;;;;;;2.80;2.60;;;14.80;99.90;;;;;;5054320;28;20488;-75
2021/06/08 02:03:01;;;;;;;4.05;2.30;;;14.80;99.90;;;;;;5056460;28;20123;-75
2021/06/08 02:05:57;;;;;;;4.80;2.30;;;15.00;99.90;;;;;;5058252;28;20127;-75
2021/06/08 02:08:44;;;;;;;2.85;2.13;;;15.00;99.90;;;;;;5058749;28;20484;-76
2021/06/08 02:11:21;;;;;;;2.50;2.30;;;15.10;99.90;;;;;;5058218;28;20087;-75
2021/06/08 02:14:00;;;;;;;2.42;2.22;;;15.20;99.90;;;;;;5059044;28;20041;-75
2021/06/08 02:16:55;;;;;;;3.05;2.38;;;15.20;99.90;;;;;;5058271;28;20040;-75
2021/06/08 02:19:23;;;;;;;2.95;2.30;;;15.20;99.90;;;;;;5058115;28;20037;-76
2021/06/08 02:21:54;;;;;;;2.72;2.53;;;15.10;99.90;;;;;;5058276;28;20150;-76
2021/06/08 02:24:21;;;;;;;;;;;15.10;99.90;;;;;;5059197;28;20063;-76
2021/06/08 02:26:49;;;;;;;2.45;2.25;;;15.10;99.90;;;;;;5057792;28;20344;-75
2021/06/08 02:29:17;;;;;;;2.40;2.20;;;15.00;99.90;;;;;;5058157;28;20037;-75
2021/06/08 02:31:44;;;;;;;3.28;2.60;;;15.00;99.90;;;;;;5058105;28;20139;-75
2021/06/08 02:34:12;;;;;;;3.20;2.45;;;14.90;99.90;;;;;;5057874;28;20045;-75
2021/06/08 02:36:39;;;;;;;2.38;2.17;;;14.90;99.90;;;;;;5058192;28;20048;-75
2021/06/08 02:39:06;;;;;;;2.28;2.00;;;14.90;99.90;;;;;;5040526;28;20385;-75
2021/06/08 02:41:33;;;;;;;2.72;2.53;;;14.90;99.90;;;;;;5057776;28;20488;-75
2021/06/08 02:43:59;;;;;;;2.75;2.33;;;14.90;99.90;;;;;;5057774;28;20045;-76
2021/06/08 02:46:25;;;;;;;3.80;2.35;;;14.90;99.90;;;;;;5057903;28;20131;-75
2021/06/08 02:48:53;;;;;;;2.33;2.05;;;14.90;99.90;;;;;;5057711;28;20029;-75
2021/06/08 02:51:23;;;;;;;2.42;2.22;;;14.80;99.90;;;;;;5057968;28;20040;-75
2021/06/08 02:53:52;;;;;;;2.03;1.90;;;14.70;99.90;;;;;;5057685;28;20041;-75
2021/06/08 02:56:18;;;;;;;2.97;2.42;;;14.70;99.90;;;;;;5057229;28;20554;-75
2021/06/08 02:58:46;;;;;;;2.97;2.75;;;14.70;99.90;;;;;;5057617;28;20521;-75
2021/06/08 03:01:14;;;;;;;3.30;2.47;;;14.60;99.90;;;;;;5057564;28;20040;-75
2021/06/08 03:03:42;;;;;;;3.28;2.50;;;14.70;99.90;;;;;;5057144;28;20044;-75
2021/06/08 03:06:27;;;;;;;2.60;2.40;;;14.70;99.90;;;;;;5056833;28;20496;-75
2021/06/08 03:08:55;;;;;;;2.60;2.22;;;14.80;99.90;;;;;;5057195;28;20118;-75
2021/06/08 03:11:28;;;;;;;3.03;2.65;;;14.80;99.90;;;;;;5056904;28;20119;-75
2021/06/08 03:13:56;;;;;;;2.85;2.50;;;14.70;99.90;;;;;;5056956;28;20048;-75
2021/06/08 03:16:26;;;;;;;2.47;2.28;;;14.50;99.90;;;;;;5056841;28;20049;-75
2021/06/08 03:18:54;;;;;;;3.63;2.63;;;14.50;99.90;;;;;;5057299;28;20076;-75
2021/06/08 03:21:34;;;;;;;4.97;2.70;;;14.50;99.90;;;;;;5056977;28;20553;-75
2021/06/08 03:24:03;;;;;;;2.65;2.45;;;14.50;99.90;;;;;;5056850;28;20555;-76
2021/06/08 03:26:35;;;;;;;3.53;2.67;;;14.40;99.90;;;;;;5056731;28;20037;-75
2021/06/08 03:29:12;;;;;;;3.65;2.65;;;14.40;99.90;;;;;;5057101;28;20098;-75
2021/06/08 03:31:41;;;;;;;2.88;2.60;;;14.40;99.90;;;;;;5056076;28;20037;-75
2021/06/08 03:34:10;;;;;;;2.50;2.30;;;14.30;99.90;;;;;;5056655;28;20045;-75
2021/06/08 03:36:36;;;;;;;3.47;2.30;;;14.30;99.90;;;;;;5056717;28;20032;-75
2021/06/08 03:39:03;;;;;;;2.63;2.40;;;14.30;99.90;;;;;;5056375;28;20040;-75
2021/06/08 03:41:30;;;;;;;2.65;2.45;;;14.20;99.90;;;;;;5056002;28;20511;-75
2021/06/08 03:43:56;;;;;;;2.85;2.40;;;14.20;99.90;;;;;;5056409;28;20040;-75
2021/06/08 03:46:25;;;;;;;2.92;2.58;;;14.10;99.90;;;;;;5056817;28;20037;-75
2021/06/08 03:48:55;;;;;;;3.80;3.28;;;14.10;99.90;;;;;;5056308;28;20033;-76
2021/06/08 03:51:21;;;;;;;3.33;2.53;;;14.00;99.90;;;;;;5056036;28;20120;-75
2021/06/08 03:53:47;;;;;;;2.88;2.67;;;14.20;99.90;;;;;;5056139;28;20130;-76
2021/06/08 03:56:13;;;;;;;2.50;2.30;;;14.30;99.90;;;;;;5056049;28;20095;-75
2021/06/08 03:58:41;;;;;;;3.47;2.35;;;14.30;99.90;;;;;;5056641;28;20526;-75
2021/06/08 04:01:07;;;;;;;2.70;2.25;;;14.50;99.90;;;;;;5056140;28;20033;-75
2021/06/08 04:03:36;;;;;;;3.28;2.25;;;14.70;99.90;;;;;;5056152;28;20044;-75
2021/06/08 04:06:03;;;;;;;2.50;2.30;;;14.90;99.90;;;;;;5055989;28;20037;-76
2021/06/08 04:08:29;;;;;;;2.20;2.00;;;15.10;99.90;;;;;;5055686;28;20063;-75
2021/06/08 04:10:56;;;;;;;2.10;1.90;;;15.20;99.90;;;;;;5055997;28;20033;-75
2021/06/08 04:13:22;;;;;;;2.80;2.10;;;15.30;99.90;;;;;;5055981;28;20055;-75
2021/06/08 04:15:51;;;;;;;2.00;1.90;;;15.40;99.90;;;;;;5055538;28;20060;-75
2021/06/08 04:18:20;;;;;;;3.20;2.10;;;15.50;99.90;;;;;;5055726;28;20036;-75
2021/06/08 04:20:47;;;;;;;4.10;2.10;;;15.50;99.90;;;;;;5055277;28;20036;-76
2021/06/08 04:23:14;;;;;;;2.40;2.20;;;15.50;99.90;;;;;;5055620;28;20040;-75
2021/06/08 04:25:39;;;;;;;2.10;1.90;;;15.50;99.90;;;;;;5054572;28;20136;-75
2021/06/08 04:28:05;;;;;;;2.28;2.08;;;15.50;99.90;;;;;;5055622;28;20530;-75
2021/06/08 04:30:31;;;;;;;2.20;2.00;;;15.50;99.90;;;;;;5055258;28;20069;-75
2021/06/08 04:32:57;;;;;;;3.40;2.10;;;15.60;99.90;;;;;;5055471;28;20037;-75
2021/06/08 04:35:23;;;;;;;2.40;1.90;;;15.60;99.90;;;;;;5055198;28;20052;-75
2021/06/08 04:37:49;;;;;;;2.63;2.30;;;15.60;99.90;;;;;;5055124;28;20389;-73
2021/06/08 04:40:16;;;;;;;2.40;2.20;;;15.50;99.90;;;;;;5054221;28;20068;-74
2021/06/08 04:42:44;;;;;;;2.30;2.10;;;15.60;99.90;;;;;;5053733;28;20111;-74
2021/06/08 04:45:11;;;;;;;3.40;2.42;;;15.60;99.90;;;;;;5055342;28;20130;-74
2021/06/08 04:47:38;;;;;;;2.17;1.98;;;15.70;99.90;;;;;;5054889;28;20043;-74
2021/06/08 04:50:08;;;;;;;3.35;1.88;;;15.70;99.90;;;;;;5054775;28;20037;-74
2021/06/08 04:52:35;;;;;;;3.28;2.20;;;15.70;99.90;;;;;;5055103;28;20050;-74
2021/06/08 04:55:01;;;;;;;3.42;2.10;;;15.70;99.90;;;;;;5054984;28;20496;-74
2021/06/08 04:57:28;;;;;;;4.95;2.33;;;15.80;99.90;;;;;;5055121;28;20119;-74
2021/06/08 05:00:11;;;;;;;2.30;2.10;;;15.80;99.90;;;;;;5054743;28;20045;-74
2021/06/08 05:03:13;;;;;;;2.17;1.90;;;15.90;99.90;;;;;;5055010;28;20032;-74
2021/06/08 05:05:43;;;;;;;2.30;2.10;;;16.00;99.90;;;;;;5032973;28;20049;-74
2021/06/08 05:08:19;;;;;;;2.75;2.08;;;16.00;99.90;;;;;;5055298;28;20037;-74
2021/06/08 05:11:03;;;;;;;2.67;1.92;;;16.00;99.90;;;;;;5055200;28;20553;-74
2021/06/08 05:13:31;;;;;;;3.88;3.25;;;16.10;99.90;;;;;;5055386;28;20033;-74
2021/06/08 05:15:59;;;;;;;2.00;1.80;;;17.60;99.90;;;;;;5054752;28;20082;-74
2021/06/08 05:18:27;;;;;;;1.80;1.70;;;20.10;99.90;;;;;;5055632;28;20082;-74
2021/06/08 05:20:53;;;;;;;1.50;1.40;;;21.20;94.70;;;;;;5054668;28;20033;-74
2021/06/08 05:23:19;;;;;;;1.95;1.75;;;21.80;91.10;;;;;;5054968;28;20082;-74
2021/06/08 05:25:48;;;;;;;3.30;1.75;;;22.80;77.40;;;;;;5054088;28;20045;-74
2021/06/08 05:28:15;;;;;;;2.85;2.08;;;22.50;82.40;;;;;;5055441;28;20143;-74
2021/06/08 05:30:41;;;;;;;2.47;1.75;;;21.40;91.80;;;;;;5054859;28;20052;-74
2021/06/08 05:33:10;;;;;;;1.70;1.60;;;22.00;89.20;;;;;;5054800;28;20041;-74
2021/06/08 05:35:36;;;;;;;2.13;1.90;;;21.60;90.60;;;;;;5055097;28;20078;-74
2021/06/08 05:38:07;;;;;;;1.80;1.65;;;22.50;84.50;;;;;;5054692;28;20167;-74
2021/06/08 05:40:37;;;;;;;1.90;1.55;;;22.90;75.20;;;;;;5054784;28;20076;-74
2021/06/08 05:43:03;;;;;;;1.73;1.48;;;23.60;65.30;;;;;;5054696;28;20032;-74
2021/06/08 05:45:34;;;;;;;1.50;1.40;;;25.60;34.10;;;;;;5054857;28;20098;-74
2021/06/08 05:48:00;;;;;;;2.03;1.60;;;26.50;25.70;;;;;;5054973;28;20167;-75
2021/06/08 05:50:27;;;;;;;2.08;1.55;;;27.20;20.00;;;;;;5053044;28;20396;-74
2021/06/08 05:52:53;;;;;;;1.42;1.33;;;28.00;16.80;;;;;;5054356;28;20041;-74
2021/06/08 05:55:25;;;;;;;1.30;1.23;;;28.70;14.20;;;;;;5054723;28;20044;-75
2021/06/08 05:57:52;;;;;;;2.33;1.25;;;29.60;11.60;;;;;;5054071;28;20397;-75
2021/06/08 06:00:19;;;;;;;1.33;1.23;;;29.40;10.20;;;;;;5054253;28;20120;-74
2021/06/08 06:02:46;;;;;;;2.10;1.60;;;29.80;8.70;;;;;;5054161;28;20037;-75
2021/06/08 06:05:13;;;;;;;3.60;1.40;;;31.00;8.40;;;;;;5054566;28;20037;-75
2021/06/08 06:07:40;;;;;;;3.85;1.30;;;30.10;6.90;;;;;;5054180;28;20064;-75
2021/06/08 06:10:07;;;;;;;1.42;1.33;;;30.50;7.80;;;;;;5054233;28;20120;-75
2021/06/08 06:12:37;;;;;;;1.67;1.42;;;30.80;7.90;;;;;;5054337;28;20043;-75
2021/06/08 06:15:04;;;;;;;2.37;1.33;;;29.70;7.70;;;;;;5055275;28;20102;-74
2021/06/08 06:17:36;;;;;;;1.33;1.20;;;29.10;8.20;;;;;;5054289;28;20123;-75
2021/06/08 06:20:09;;;;;;;1.42;1.33;;;30.40;6.80;;;;;;5054292;28;20032;-75
2021/06/08 06:22:36;;;;;;;1.98;1.42;;;30.80;6.30;;;;;;5054347;28;20060;-75
2021/06/08 06:25:07;;;;;;;1.23;1.13;;;30.90;5.10;;;;;;5053913;28;20044;-75
2021/06/08 06:27:35;;;;;;;4.22;1.65;;;30.10;4.30;;;;;;5054084;28;20045;-75
2021/06/08 06:30:01;;;;;;;2.08;1.40;;;30.20;4.70;;;;;;5053906;28;20045;-75
2021/06/08 06:32:28;;;;;;;1.73;1.20;;;31.30;4.10;;;;;;5048016;28;20523;-74
2021/06/08 06:34:53;;;;;;;1.67;1.40;;;31.00;4.70;;;;;;5053583;28;20048;-75
2021/06/08 06:37:23;;;;;;;2.95;1.25;;;31.90;3.20;;;;;;5054173;28;20041;-75
2021/06/08 06:39:49;;;;;;;1.27;1.17;;;32.50;2.40;;;;;;5054438;28;20040;-75
2021/06/08 06:42:16;;;;;;;1.77;1.42;;;32.70;1.90;;;;;;5052548;28;20538;-75
2021/06/08 06:44:43;;;;;;;2.88;1.38;;;32.00;1.00;;;;;;5033961;28;20500;-74
2021/06/08 06:47:09;;;;;;;2.25;1.40;;;30.80;3.20;;;;;;5034085;28;20069;-75
2021/06/08 06:49:37;;;;;;;1.40;1.30;;;31.00;3.50;;;;;;5037115;28;20037;-74
2021/06/08 06:52:06;;;;;;;1.58;1.30;;;31.60;2.60;;;;;;5037471;28;20095;-74
2021/06/08 06:54:32;;;;;;;2.20;1.60;;;32.30;2.00;;;;;;5037545;28;20501;-75
2021/06/08 06:57:01;;;;;;;1.60;1.35;;;32.10;2.00;;;;;;5037374;28;20037;-74
2021/06/08 06:59:27;;;;;;;1.83;1.20;;;31.50;2.80;;;;;;5037731;28;20068;-74
2021/06/08 07:01:54;;;;;;;3.75;1.63;;;33.00;1.70;;;;;;5037557;28;20041;-74
2021/06/08 07:04:24;;;;;;;3.80;1.40;;;33.90;1.00;;;;;;5037096;28;20095;-74
2021/06/08 07:06:51;;;;;;;1.80;1.70;;;34.10;1.00;;;;;;5037361;28;20552;-74
2021/06/08 07:09:25;;;;;;;1.52;1.30;;;33.20;1.00;;;;;;5036508;28;20140;-73
2021/06/08 07:11:55;;;;;;;1.73;1.30;;;35.00;1.00;;;;;;5036640;28;20500;-74
2021/06/08 07:14:22;;;;;;;2.47;1.70;;;33.80;1.00;;;;;;5053685;28;20040;-73
2021/06/08 07:16:50;;;;;;;3.33;1.25;;;35.60;1.00;;;;;;5057020;28;20504;-73
2021/06/08 07:19:16;;;;;;;1.88;1.30;;;34.20;1.00;;;;;;5056805;28;20043;-74
2021/06/08 07:21:42;;;;;;;1.90;1.40;;;32.70;1.00;;;;;;5056785;28;20488;-74
2021/06/08 07:24:11;;;;;;;1.73;1.45;;;32.30;1.00;;;;;;5056610;28;20069;-73
2021/06/08 07:26:38;;;;;;;1.55;1.45;;;31.80;1.00;;;;;;5038734;28;20044;-74
2021/06/08 07:29:11;;;;;;;1.63;1.52;;;32.90;1.00;;;;;;5056336;28;20051;-74
2021/06/08 07:31:54;;;;;;;1.30;1.20;;;34.20;1.00;;;;;;5056152;28;20099;-74
2021/06/08 07:34:49;;;;;;;1.63;1.52;;;32.70;1.00;;;;;;5056736;28;20051;-74
2021/06/08 07:37:22;;;;;;;1.25;1.15;;;34.50;1.00;;;;;;5056355;28;20049;-74
2021/06/08 07:40:05;;;;;;;2.60;1.33;;;34.80;1.00;;;;;;5056177;28;20044;-74
2021/06/08 07:42:50;;;;;;;1.63;1.52;;;34.30;1.00;;;;;;5056396;28;20036;-74
2021/06/08 07:45:30;;;;;;;1.55;1.45;;;34.20;1.00;;;;;;5056002;28;20127;-73
2021/06/08 07:47:59;;;;;;;1.55;1.40;;;33.10;1.00;;;;;;5056129;28;20043;-74
2021/06/08 07:50:34;;;;;;;1.60;1.50;;;30.50;2.10;;;;;;5056005;28;20037;-74
2021/06/08 07:53:02;;;;;;;1.65;1.40;;;28.90;9.00;;;;;;5056231;28;20072;-75
2021/06/08 07:55:30;;;;;;;2.45;1.50;;;26.80;17.80;;;;;;5049501;28;20037;-75
2021/06/08 07:57:56;;;;;;;2.03;1.52;;;25.90;38.00;;;;;;5055807;28;20119;-75
2021/06/08 08:00:24;;;;;;;1.50;1.40;;;24.80;52.70;;;;;;5054370;28;20033;-75
2021/06/08 08:02:53;;;;;;;4.65;1.40;;;24.30;68.30;;;;;;5055646;28;20516;-75
2021/06/08 08:05:23;;;;;;;1.65;1.38;;;24.10;71.80;;;;;;5055375;28;20531;-75
2021/06/08 08:07:49;;;;;;;1.80;1.38;;;23.90;73.00;;;;;;5054836;28;20508;-75
2021/06/08 08:10:20;;;;;;;2.40;1.58;;;23.70;81.80;;;;;;5055536;28;20037;-75
2021/06/08 08:12:47;;;;;;;2.08;1.70;;;23.60;80.70;;;;;;5055486;28;20041;-74
2021/06/08 08:15:14;;;;;;;2.05;1.77;;;23.40;84.30;;;;;;5055436;28;20140;-74
2021/06/08 08:17:44;;;;;;;3.17;1.70;;;23.40;83.20;;;;;;5055228;28;20037;-74
2021/06/08 08:20:11;;;;;;;1.67;1.58;;;23.40;84.20;;;;;;5055024;28;20041;-74
2021/06/08 08:22:41;;;;;;;1.63;1.52;;;23.50;82.70;;;;;;5037790;28;20504;-74
2021/06/08 08:25:08;;;;;;;1.50;1.40;;;23.40;77.70;;;;;;5055059;28;20186;-74
2021/06/08 08:27:34;;;;;;;2.28;1.45;;;23.40;71.30;;;;;;5055093;28;20136;-75
2021/06/08 08:30:01;;;;;;;1.75;1.35;;;23.20;61.10;;;;;;5054856;28;20043;-74
2021/06/08 08:32:27;;;;;;;3.03;1.55;;;23.20;66.00;;;;;;5037150;28;20133;-75
2021/06/08 08:34:54;;;;;;;1.65;1.55;;;23.20;73.90;;;;;;5055102;28;20037;-75
2021/06/08 08:37:20;;;;;;;1.60;1.50;;;23.20;75.00;;;;;;5054732;28;20124;-74
2021/06/08 08:39:48;;;;;;;1.30;1.20;;;23.30;75.20;;;;;;5054806;28;20075;-75
2021/06/08 08:42:17;;;;;;;1.83;1.30;;;23.10;57.30;;;;;;5054770;28;20103;-75
2021/06/08 08:44:44;;;;;;;2.20;1.48;;;23.10;64.10;;;;;;5055097;28;20504;-74
2021/06/08 08:47:10;;;;;;;1.60;1.50;;;23.10;67.40;;;;;;5054971;28;20047;-74
2021/06/08 08:49:37;;;;;;;1.80;1.35;;;23.20;71.20;;;;;;5054459;28;20036;-74
2021/06/08 08:52:04;;;;;;;2.55;1.30;;;23.20;66.80;;;;;;5054667;28;20039;-74
2021/06/08 08:54:32;;;;;;;1.60;1.48;;;23.20;77.90;;;;;;5054903;28;20086;-75
2021/06/08 08:56:59;;;;;;;2.33;1.70;;;23.30;69.60;;;;;;5054662;28;20068;-74
2021/06/08 08:59:28;;;;;;;1.77;1.65;;;23.20;79.30;;;;;;5054577;28;20036;-74
2021/06/08 09:01:55;;;;;;;1.33;1.20;;;23.20;84.20;;;;;;5054536;28;20055;-74
2021/06/08 09:04:22;;;;;;;3.10;1.40;;;23.10;61.50;;;;;;5054493;28;20131;-74
2021/06/08 09:06:48;;;;;;;2.22;1.48;;;23.10;62.30;;;;;;5054091;28;20554;-73
2021/06/08 09:09:14;;;;;;;2.85;1.80;;;23.20;71.50;;;;;;5054608;28;20395;-74
2021/06/08 09:11:42;;;;;;;2.35;1.35;;;23.20;85.10;;;;;;5054094;28;20076;-73
2021/06/08 09:14:10;;;;;;;1.52;1.20;;;23.10;79.10;;;;;;5054722;28;20086;-73
2021/06/08 09:16:36;;;;;;;4.63;1.58;;;23.20;58.40;;;;;;5055296;28;20492;-74
2021/06/08 09:19:07;;;;;;;2.55;1.80;;;23.10;83.30;;;;;;5054551;28;20040;-73
2021/06/08 09:21:34;;;;;;;2.25;1.35;;;23.10;84.60;;;;;;5054686;28;20091;-74
2021/06/08 09:24:22;;;;;;;1.75;1.50;;;23.10;82.10;;;;;;5054650;28;20479;-74
2021/06/08 09:27:08;;;;;;;1.92;1.73;;;23.20;87.10;;;;;;5054312;28;20112;-74
2021/06/08 09:29:39;;;;;;;2.08;1.90;;;23.00;84.70;;;;;;5054046;28;20073;-74
2021/06/08 09:32:26;;;;;;;3.88;1.98;;;23.00;87.60;;;;;;5054511;28;20068;-74
2021/06/08 09:35:00;;;;;;;2.42;1.85;;;22.80;90.60;;;;;;5054873;28;20048;-73
2021/06/08 09:37:45;;;;;;;2.55;2.00;;;22.80;88.10;;;;;;5054415;28;20033;-74
2021/06/08 09:40:21;;;;;;;3.05;2.00;;;22.90;87.00;;;;;;5054353;28;20476;-73
2021/06/08 09:42:48;;;;;;;2.38;1.80;;;22.90;83.60;;;;;;5054269;28;20036;-73
2021/06/08 09:45:17;;;;;;;1.52;1.23;;;22.90;77.10;;;;;;5053750;28;20217;-74
2021/06/08 09:47:44;;;;;;;2.05;1.33;;;23.00;72.00;;;;;;5053842;28;20032;-74
2021/06/08 09:50:28;;;;;;;1.27;1.17;;;23.10;79.20;;;;;;5036505;28;20040;-74
2021/06/08 09:53:25;;;;;;;1.67;1.40;;;23.20;58.30;;;;;;5053887;28;20043;-74
2021/06/08 09:56:06;;;;;;;1.83;1.70;;;23.20;54.90;;;;;;5053638;28;20159;-73
2021/06/08 09:58:35;;;;;;;1.90;1.15;;;23.30;70.30;;;;;;5054154;28;20484;-74
2021/06/08 10:01:27;;;;;;;1.20;1.10;;;23.30;69.10;;;;;;5053810;28;20043;-74
2021/06/08 10:03:54;;;;;;;3.42;1.63;;;23.30;57.30;;;;;;5048566;28;20515;-69
2021/06/08 10:06:27;;;;;;;1.50;1.40;;;23.40;62.50;;;;;;5053689;28;20041;-74
2021/06/08 10:08:56;;;;;;;1.58;1.30;;;23.40;52.90;;;;;;5053685;28;20051;-74
2021/06/08 10:11:28;;;;;;;1.45;1.30;;;23.50;55.10;;;;;;5053706;28;20033;-74
2021/06/08 10:14:07;;;;;;;3.25;1.40;;;23.50;44.20;;;;;;5053515;28;20408;-74
2021/06/08 10:16:33;;;;;;;2.20;1.27;;;23.50;44.80;;;;;;5053706;28;20120;-74
2021/06/08 10:19:00;;;;;;;2.35;1.40;;;23.50;37.10;;;;;;5053677;28;20044;-74
2021/06/08 10:21:45;;;;;;;2.72;1.40;;;23.60;36.80;;;;;;5052489;28;20044;-74
2021/06/08 10:24:16;;;;;;;1.65;1.40;;;23.40;36.60;;;;;;5054822;28;20045;-73
2021/06/08 10:26:49;;;;;;;1.92;1.58;;;23.40;34.50;;;;;;5056774;28;20492;-73
2021/06/08 10:29:16;;;;;;;1.30;1.20;;;23.40;35.40;;;;;;5057943;28;20040;-73
2021/06/08 10:31:43;;;;;;;1.60;1.50;;;23.30;42.20;;;;;;5057053;28;20488;-74
2021/06/08 10:34:11;;;;;;;2.67;1.38;;;23.40;50.80;;;;;;5057205;28;20052;-74
2021/06/08 10:36:43;;;;;;;1.60;1.50;;;23.40;55.50;;;;;;5057895;28;20041;-73
2021/06/08 10:39:13;;;;;;;4.20;1.65;;;23.40;61.60;;;;;;5057374;28;20041;-74
2021/06/08 10:41:42;;;;;;;1.42;1.33;;;23.50;60.30;;;;;;5057075;28;20037;-74
2021/06/08 10:44:24;;;;;;;1.80;1.50;;;23.70;53.70;;;;;;5057114;28;20090;-74
2021/06/08 10:47:03;;;;;;;3.60;2.58;;;23.60;50.10;;;;;;5057232;28;20037;-73
2021/06/08 10:49:37;;;;;;;2.00;1.90;;;23.60;49.30;;;;;;5056653;28;20467;-74
2021/06/08 10:52:08;;;;;;;3.25;2.78;;;23.50;45.30;;;;;;5057205;28;20043;-74
2021/06/08 10:54:43;;;;;;;1.67;1.52;;;23.60;39.50;;;;;;5056337;28;20239;-73
2021/06/08 10:57:13;;;;;;;2.53;1.70;;;23.60;50.10;;;;;;5056794;28;20094;-74
2021/06/08 10:59:50;;;;;;;2.83;1.80;;;23.60;47.80;;;;;;5056332;28;20048;-73
2021/06/08 11:02:41;;;;;;;1.73;1.50;;;23.70;62.10;;;;;;5057222;28;20496;-74
2021/06/08 11:05:07;;;;;;;1.50;1.40;;;23.70;41.40;;;;;;5056597;28;20041;-74
2021/06/08 11:07:39;;;;;;;1.35;1.23;;;23.80;67.10;;;;;;5055996;28;20051;-73
2021/06/08 11:10:29;;;;;;;3.03;1.40;;;23.90;65.50;;;;;;5057204;28;20076;-73
2021/06/08 11:13:11;;;;;;;2.08;1.98;;;24.10;64.80;;;;;;5057156;28;20476;-74
2021/06/08 11:15:47;;;;;;;3.50;1.80;;;23.90;72.30;;;;;;5056953;28;20076;-74
2021/06/08 11:18:25;;;;;;;1.95;1.75;;;23.80;72.30;;;;;;5057330;28;20033;-73
2021/06/08 11:20:57;;;;;;;1.58;1.48;;;23.90;75.00;;;;;;5056992;28;20488;-74
2021/06/08 11:23:42;;;;;;;2.35;1.60;;;24.30;74.30;;;;;;5054372;28;20597;-73
2021/06/08 11:26:15;;;;;;;1.50;1.40;;;24.30;57.20;;;;;;5056729;28;20049;-73
2021/06/08 11:28:50;;;;;;;2.67;1.65;;;24.10;58.70;;;;;;5057032;28;20071;-74
2021/06/08 11:31:23;;;;;;;2.58;1.60;;;23.90;74.90;;;;;;5056513;28;20072;-73
2021/06/08 11:33:59;;;;;;;2.28;1.63;;;23.70;78.80;;;;;;5056905;28;20060;-74
2021/06/08 11:36:29;;;;;;;1.70;1.60;;;23.80;82.30;;;;;;5051751;28;20052;-74
2021/06/08 11:39:16;;;;;;;1.98;1.88;;;24.10;65.60;;;;;;5054215;28;20086;-74
2021/06/08 11:42:00;;;;;;;1.60;1.50;;;24.30;49.90;;;;;;5056184;28;20037;-74
2021/06/08 11:44:26;;;;;;;2.40;1.55;;;24.60;58.20;;;;;;5056374;28;20055;-74
2021/06/08 11:47:00;;;;;;;3.25;1.70;;;24.60;71.60;;;;;;5055767;28;20055;-74
2021/06/08 11:49:28;;;;;;;1.75;1.50;;;24.70;62.40;;;;;;5055911;28;20045;-74
2021/06/08 11:52:05;;;;;;;3.10;1.65;;;24.80;48.60;;;;;;5055060;28;20033;-74
2021/06/08 11:54:31;;;;;;;1.40;1.30;;;24.70;49.90;;;;;;5055746;28;20127;-74
2021/06/08 11:57:02;;;;;;;2.17;1.38;;;24.70;60.60;;;;;;5055098;28;20112;-74
2021/06/08 11:59:43;;;;;;;1.83;1.48;;;24.80;51.90;;;;;;5056027;28;20041;-74
2021/06/08 12:02:30;;;;;;;1.30;1.20;;;24.80;43.10;;;;;;5056039;28;20028;-74
2021/06/08 12:05:22;;;;;;;2.53;1.60;;;25.10;37.20;;;;;;5044666;28;20127;-74
2021/06/08 12:07:53;;;;;;;1.60;1.40;;;25.30;36.10;;;;;;5035866;28;20497;-74
2021/06/08 12:10:35;;;;;;;1.48;1.33;;;25.30;29.50;;;;;;5035855;28;20107;-73
2021/06/08 12:13:01;;;;;;;2.15;1.50;;;25.40;33.80;;;;;;5035593;28;20045;-73
2021/06/08 12:15:31;;;;;;;1.30;1.20;;;25.50;25.10;;;;;;5035948;28;20033;-73
2021/06/08 12:18:09;;;;;;;1.85;1.30;;;25.30;20.60;;;;;;5035667;28;20033;-73
2021/06/08 12:20:38;;;;;;;1.77;1.40;;;25.60;22.40;;;;;;5047664;28;20495;-74
2021/06/08 12:23:05;;;;;;;2.00;1.15;;;25.80;19.40;;;;;;5055560;28;20080;-74
2021/06/08 12:25:31;;;;;;;1.90;1.48;;;25.60;20.00;;;;;;5054693;28;20583;-74
2021/06/08 12:27:57;;;;;;;1.67;1.58;;;25.70;24.30;;;;;;5055484;28;20068;-73
2021/06/08 12:30:24;;;;;;;3.13;1.15;;;25.70;17.40;;;;;;5055431;28;20110;-73
2021/06/08 12:33:01;;;;;;;1.63;1.52;;;25.60;18.60;;;;;;5055292;28;20043;-73
2021/06/08 12:35:31;;;;;;;2.78;1.25;;;25.50;16.80;;;;;;5055072;28;20040;-74
2021/06/08 12:38:27;;;;;;;1.63;1.20;;;25.50;20.80;;;;;;5054301;28;20075;-74
2021/06/08 12:41:10;;;;;;;20.17;1.90;;;25.70;16.20;;;;;;5046225;28;20495;-75
2021/06/08 12:43:43;;;;;;;1.50;1.40;;;25.70;17.50;;;;;;5055345;28;20037;-74
2021/06/08 12:46:08;;;;;;;1.13;1.10;;;25.70;19.40;;;;;;5055023;28;20399;-74
2021/06/08 12:48:34;;;;;;;2.50;1.33;;;25.70;17.10;;;;;;5055576;28;20044;-74
2021/06/08 12:51:10;;;;;;;1.88;1.27;;;25.60;16.70;;;;;;5055496;28;20067;-74
2021/06/08 12:53:38;;;;;;;2.47;1.40;;;25.40;20.50;;;;;;5056126;28;20060;-74
2021/06/08 12:56:04;;;;;;;1.33;1.23;;;25.60;26.20;;;;;;5055325;28;20098;-74
2021/06/08 12:58:31;;;;;;;1.38;1.27;;;25.80;21.00;;;;;;5054673;28;20073;-74
2021/06/08 13:00:57;;;;;;;1.42;1.33;;;25.80;21.40;;;;;;5055269;28;20036;-74
2021/06/08 13:03:23;;;;;;;1.60;1.50;;;25.70;23.10;;;;;;5055656;28;20136;-74
2021/06/08 13:05:50;;;;;;;1.30;1.23;;;25.60;30.40;;;;;;5055101;28;20151;-74